Air Navigation Services of Czech Republic
Airport: LKPD Updated:  20.02.2017 20:50:14  UTC
 METAR LKPD 20.02. 20:00 ...
METAR LKPD 202000Z 25010KT 9999 -RA SCT030 OVC060 06/03 Q1013 NOSIG =
 TAF LKPD 20.02. 17:00 ...
TAF LKPD 201700Z 2018/2118 25012KT 9999 BKN035      BECMG 2018/2021 7000 RA BKN020 OVC040      TEMPO 2018/2115 25016G28KT      BECMG 2108/2110 NSW      TEMPO 2110/2116 3500 SHRA BKN012=